Miyazaki, Japan

8:22 AM JST on July 06, 2015 (GMT +0900)
Miyazaki | | Change Station
CLOSE
Current Station
Airport
Location: Miyazaki Airport,
Elevation: 26 ft
Nearby Weather Stations

Elev 26 ft 31.88 °N, 131.45 °E | Updated 13 minutes ago

Rain Showers
Showers Rain Mist
68 °F
Feels Like 68 °F
N
4
Wind Variable Wind from Variable

Today
High -- | Low -- °F
--% Chance of Precip.
Yesterday
High -- | Low -- °F
Precip. -- in
5:13 AM 7:23 PM
Waning Gibbous, 81% visible
Pressure 29.86 in
Visibility 1.2 miles
Clouds Few 200 ft
Scattered Clouds 300 ft
Mostly Cloudy 800 ft
Dew Point 66 °F
Humidity 94%
Rainfall 0.00 in
Snow Depth Not available.
UV 3 out of 12
Pollen Not available.
Air Quality Not available.
Flu Activity Not available.
SPECI RJFM 052309Z VRB03KT 2000 R27/0800V1400U SHRA BR FEW002 SCT003 BKN008 20/19 Q1011 RMK 1ST002 3ST003 5ST008 A2985

More Conditions Fewer Conditions

Pressure 29.86 in
Visibility 1.2 miles
Clouds Few 200 ft
Scattered Clouds 300 ft
Mostly Cloudy 800 ft
Dew Point 66 °F
Humidity 94%
Rainfall 0.00 in
Snow Depth Not available.
UV 3 out of 12
Pollen Not available.
Air Quality Not available.
Flu Activity Not available.
SPECI RJFM 052309Z VRB03KT 2000 R27/0800V1400U SHRA BR FEW002 SCT003 BKN008 20/19 Q1011 RMK 1ST002 3ST003 5ST008 A2985

More Conditions Fewer Conditions

10-Day Weather Forecast

×

Almanac

Astronomy

Jul. 06, 2015 Rise Set
Actual Time
Civil Twilight
Nautical Twilight
Astronomical Twilight
Moon
Length of Visible Light
Length of Day
Tomorrow will be .
, % of the Moon is Illuminated

Today's Extremes

Country Highs Country Lows

Community

WunderPhotos

Upload Photos

1,835,419 photos uploaded!

WunderBlogs® & News

Nearby

Air Quality

  Air Quality AQ Index Pollutant
Not available.

Snow Depth

Station Depth Elevation

Earthquake Activity

City Distance Mag. Time & Date
Minimum magnitude displayed is 2.5.

Coastal Water Temperatures

Place Temperature

Stations

Nearby Weather Stations

Station Location Temp. Windchill Dew Point Humidity Wind Precip. Elev Updated Type